Howard City, MI

8:42 PM EST on December 25, 2014 (GMT -0500)
Roben-Hood | Change Station
CLOSE
Current Station
Airport
Location: Big Rapids,
Elevation: 991 ft
Nearby Weather Stations

Elev 991 ft 43.72 °N, 85.50 °W | Updated 7 minutes ago

Mostly Cloudy
Mostly Cloudy
35 °F
Feels Like 28 °F
N
9
Wind Variable Wind from SSW

Today
High -- | Low -- °F
--% Chance of Precip.
Yesterday
High -- | Low -- °F
Precip. -- in
8:13 AM 5:11 PM
Waxing Crescent, 21% visible
Pressure 29.98 in
Visibility 10.0 miles
Clouds Overcast 1300 ft
Windchill 28 °F
Dew Point 33 °F
Humidity 92%
Rainfall 0.00 in
Snow Depth Not available.
UV 0 out of 12
Pollen .10 out of 12
Air Quality Not available.
Flu Activity Not available.
METAR KRQB 260135Z AUTO 20008KT 10SM OVC013 02/01 A2998 RMK AO2 T00170005

More Conditions Fewer Conditions

Pressure 29.98 in
Visibility 10.0 miles
Clouds Overcast 1300 ft
Windchill 28 °F
Dew Point 33 °F
Humidity 92%
Rainfall 0.00 in
Snow Depth Not available.
UV 0 out of 12
Pollen .10 out of 12
Air Quality Not available.
Flu Activity Not available.
METAR KRQB 260135Z AUTO 20008KT 10SM OVC013 02/01 A2998 RMK AO2 T00170005

More Conditions Fewer Conditions

10-Day Weather Forecast

Almanac

Astronomy

Dec. 25, 2014 Rise Set
Actual Time
Civil Twilight
Nautical Twilight
Astronomical Twilight
Moon
Length of Visible Light
Length of Day
Tomorrow will be .
, % of the Moon is Illuminated

Today's Extremes

State Highs State Lows

Community

WunderPhotos

Upload Photos

1,780,495 photos uploaded!

WunderBlogs® & News

Nearby

Air Quality

  Air Quality AQ Index Pollutant
Not available.

Snow Depth

Station Depth Elevation

Earthquake Activity

City Distance Mag. Time & Date
Minimum magnitude displayed is 2.5.

Coastal Water Temperatures

Place Temperature

Nearby Weather Stations